createdAt,value
2022-09-06T00:04:50.752Z,54.88
2022-09-06T00:10:15.702Z,54.94
2022-09-06T00:15:28.364Z,55.11
2022-09-06T00:20:42.592Z,55.14
2022-09-06T00:26:04.600Z,55.43
2022-09-06T00:31:23.618Z,55.41
2022-09-06T00:36:34.425Z,55.63
2022-09-06T00:41:53.798Z,55.69
2022-09-06T00:47:00.022Z,55.83
2022-09-06T00:52:27.567Z,56.27
2022-09-06T00:57:54.209Z,56.25
2022-09-06T01:03:11.571Z,56.43
2022-09-06T01:08:28.050Z,56.61
2022-09-06T01:13:50.654Z,56.71
2022-09-06T01:19:05.535Z,56.81
2022-09-06T01:24:32.340Z,56.93
2022-09-06T01:29:49.819Z,57.16
2022-09-06T01:35:13.891Z,57.17
2022-09-06T01:40:28.119Z,57.44
2022-09-06T01:45:59.257Z,57.32
2022-09-06T01:51:31.101Z,57.49
2022-09-06T01:56:51.918Z,57.53
2022-09-06T02:02:04.070Z,57.84
2022-09-06T02:07:22.261Z,58.02
2022-09-06T02:12:51.510Z,58.21
2022-09-06T02:18:19.810Z,58.37
2022-09-06T02:23:40.809Z,58.33
2022-09-06T02:29:06.282Z,58.67
2022-09-06T02:34:21.401Z,58.78
2022-09-06T02:39:47.577Z,58.86
2022-09-06T02:44:53.885Z,59.18
2022-09-06T02:49:59.670Z,59.23
2022-09-06T02:55:06.168Z,59.54
2022-09-06T03:00:13.299Z,59.55
2022-09-06T03:05:30.901Z,59.82
2022-09-06T03:10:53.434Z,59.96
2022-09-06T03:16:20.346Z,59.95
2022-09-06T03:21:26.788Z,60.14
2022-09-06T03:26:35.649Z,60.23
2022-09-06T03:31:41.618Z,60.34
2022-09-06T03:36:47.446Z,60.66
2022-09-06T03:42:05.604Z,60.72
2022-09-06T03:47:11.921Z,60.90
2022-09-06T03:52:38.441Z,60.98
2022-09-06T03:57:46.076Z,61.05
2022-09-06T04:03:02.319Z,61.23
2022-09-06T04:08:11.760Z,61.37
2022-09-06T04:13:38.236Z,61.47
2022-09-06T04:19:05.585Z,61.65
2022-09-06T04:24:19.334Z,61.86
2022-09-06T04:29:25.625Z,61.99
2022-09-06T04:34:31.758Z,61.96
2022-09-06T04:39:48.536Z,62.05
2022-09-06T04:44:54.188Z,62.22
2022-09-06T04:50:00.171Z,62.31
2022-09-06T04:55:17.660Z,62.47
2022-09-06T05:00:50.667Z,62.57
2022-09-06T05:06:32.535Z,62.62
2022-09-06T05:12:11.648Z,62.86
2022-09-06T05:17:17.336Z,62.76
2022-09-06T05:22:25.539Z,62.77
2022-09-06T05:27:43.749Z,62.39
2022-09-06T05:32:52.373Z,61.94
2022-09-06T05:37:58.412Z,61.65
2022-09-06T05:43:04.502Z,61.34
2022-09-06T05:48:36.090Z,60.91
2022-09-06T05:54:00.847Z,60.11
2022-09-06T05:59:19.668Z,59.77
2022-09-06T06:04:25.620Z,59.68
2022-09-06T06:09:33.622Z,59.25
2022-09-06T06:14:45.021Z,58.87
2022-09-06T06:19:50.871Z,58.51
2022-09-06T06:25:17.260Z,58.03
2022-09-06T06:30:23.459Z,57.76
2022-09-06T06:35:38.298Z,57.41
2022-09-06T06:41:00.089Z,57.27
2022-09-06T06:46:08.983Z,57.05
2022-09-06T06:51:38.310Z,56.94
2022-09-06T06:57:04.589Z,56.63
2022-09-06T07:02:19.924Z,56.60
2022-09-06T07:07:31.010Z,56.15
2022-09-06T07:12:42.488Z,56.14
2022-09-06T07:17:57.941Z,56.18
2022-09-06T07:28:31.799Z,55.08
2022-09-06T07:33:46.636Z,55.09
2022-09-06T07:38:52.516Z,54.74
2022-09-06T07:43:58.485Z,54.63
2022-09-06T07:49:05.591Z,54.38
2022-09-06T07:54:30.069Z,53.53
2022-09-06T07:59:42.797Z,53.32
2022-09-06T08:04:53.769Z,52.15
2022-09-06T08:09:59.383Z,51.92
2022-09-06T08:15:05.599Z,51.62
2022-09-06T08:20:14.381Z,51.18
2022-09-06T08:25:28.937Z,50.53
2022-09-06T08:30:35.546Z,50.38
2022-09-06T08:35:41.617Z,50.24
2022-09-06T08:40:47.792Z,49.87
2022-09-06T08:45:57.723Z,49.11
2022-09-06T08:51:16.645Z,48.64
2022-09-06T08:56:25.094Z,48.22
2022-09-06T09:01:35.191Z,47.39
2022-09-06T09:06:41.228Z,46.95
2022-09-06T09:11:52.375Z,47.20
2022-09-06T09:17:06.187Z,46.37
2022-09-06T09:22:12.190Z,46.43
2022-09-06T09:27:20.510Z,46.03
2022-09-06T09:32:32.355Z,45.92
2022-09-06T09:42:51.436Z,45.66
2022-09-06T09:48:17.013Z,45.20
2022-09-06T09:53:31.417Z,45.00
2022-09-06T09:58:41.095Z,44.87
2022-09-06T10:09:31.306Z,44.30
2022-09-06T10:14:46.373Z,44.49
2022-09-06T10:19:54.035Z,44.36
2022-09-06T10:25:12.055Z,44.39
2022-09-06T10:30:20.820Z,43.89
2022-09-06T10:35:27.994Z,44.01
2022-09-06T10:40:42.808Z,43.75
2022-09-06T10:45:53.027Z,44.00
2022-09-06T10:51:14.230Z,43.91
2022-09-06T10:56:26.103Z,43.50
2022-09-06T11:01:37.528Z,43.37
2022-09-06T11:06:45.528Z,43.11
2022-09-06T11:11:54.567Z,42.90
2022-09-06T11:17:05.233Z,42.95
2022-09-06T11:22:33.769Z,42.84
2022-09-06T11:27:40.623Z,42.69
2022-09-06T11:32:51.377Z,42.66
2022-09-06T11:38:02.630Z,42.32
2022-09-06T11:43:12.552Z,42.29
2022-09-06T11:48:36.674Z,42.34
2022-09-06T11:54:06.353Z,42.34
2022-09-06T11:59:28.017Z,41.95
2022-09-06T12:04:51.054Z,41.90
2022-09-06T12:09:56.955Z,41.55
2022-09-06T12:15:22.662Z,41.43
2022-09-06T12:20:45.737Z,41.51
2022-09-06T12:26:01.163Z,41.43
2022-09-06T12:31:28.558Z,41.20
2022-09-06T12:36:34.822Z,41.15
2022-09-06T12:41:44.793Z,40.83
2022-09-06T12:46:52.340Z,40.74
2022-09-06T12:52:08.870Z,40.81
2022-09-06T12:57:16.631Z,40.83
2022-09-06T13:02:38.552Z,40.82
2022-09-06T13:07:46.595Z,40.67
2022-09-06T13:12:53.379Z,40.56
2022-09-06T13:18:15.024Z,40.46
2022-09-06T13:23:22.780Z,40.43
2022-09-06T13:28:37.911Z,40.40
2022-09-06T13:33:43.568Z,40.28
2022-09-06T13:38:49.424Z,40.10
2022-09-06T13:44:04.367Z,39.96
2022-09-06T13:49:17.910Z,39.75
2022-09-06T13:54:27.395Z,39.75
2022-09-06T13:59:33.715Z,39.93
2022-09-06T14:04:49.002Z,39.64
2022-09-06T14:10:08.439Z,39.63
2022-09-06T14:15:21.887Z,39.69
2022-09-06T14:20:30.931Z,39.60
2022-09-06T14:25:37.721Z,39.64
2022-09-06T14:30:43.612Z,39.56
2022-09-06T14:36:11.164Z,39.53
2022-09-06T14:41:18.372Z,39.53
2022-09-06T14:46:25.908Z,39.39
2022-09-06T14:51:32.255Z,39.33
2022-09-06T14:56:40.336Z,39.40
2022-09-06T15:01:46.204Z,39.26
2022-09-06T15:06:52.258Z,39.23
2022-09-06T15:11:58.095Z,39.12
2022-09-06T15:17:06.050Z,39.23
2022-09-06T15:22:11.877Z,39.25
2022-09-06T15:27:19.140Z,39.25
2022-09-06T15:32:32.809Z,39.03
2022-09-06T15:37:38.559Z,39.05
2022-09-06T15:42:45.208Z,38.90
2022-09-06T15:47:51.245Z,39.06
2022-09-06T15:52:57.208Z,39.08
2022-09-06T15:58:03.221Z,39.12
2022-09-06T16:03:09.156Z,39.07
2022-09-06T16:08:14.949Z,39.16
2022-09-06T16:13:33.267Z,39.12
2022-09-06T16:18:39.990Z,39.17
2022-09-06T16:23:51.289Z,39.05
2022-09-06T16:28:56.925Z,39.16
2022-09-06T16:34:03.266Z,39.27
2022-09-06T16:39:09.680Z,39.19
2022-09-06T16:44:17.006Z,39.33
2022-09-06T16:49:23.169Z,39.25
2022-09-06T16:54:29.513Z,39.37
2022-09-06T16:59:35.623Z,39.38
2022-09-06T17:04:41.506Z,39.58
2022-09-06T17:09:51.256Z,39.47
2022-09-06T17:14:56.858Z,39.78
2022-09-06T17:20:12.874Z,39.76
2022-09-06T17:25:25.915Z,39.88
2022-09-06T17:30:40.051Z,40.03
2022-09-06T17:35:46.103Z,40.03
2022-09-06T17:41:01.316Z,40.29
2022-09-06T17:46:07.678Z,40.36
2022-09-06T17:51:21.274Z,40.62
2022-09-06T17:56:27.068Z,40.91
2022-09-06T18:01:36.995Z,40.97
2022-09-06T18:06:44.736Z,41.14
2022-09-06T18:11:52.725Z,41.36
2022-09-06T18:17:09.923Z,41.49
2022-09-06T18:22:18.787Z,41.80
2022-09-06T18:27:36.337Z,42.05
2022-09-06T18:32:47.784Z,42.02
2022-09-06T18:38:06.041Z,42.30
2022-09-06T18:43:37.611Z,42.46
2022-09-06T18:48:49.133Z,42.58
2022-09-06T18:53:57.035Z,42.78
2022-09-06T18:59:07.853Z,42.96
2022-09-06T19:04:29.562Z,43.10
2022-09-06T19:09:42.269Z,43.24
2022-09-06T19:15:03.949Z,43.51
2022-09-06T19:20:33.660Z,43.63
2022-09-06T19:25:57.585Z,43.80
2022-09-06T19:31:17.938Z,43.71
2022-09-06T19:36:46.142Z,44.12
2022-09-06T19:41:55.438Z,44.30
2022-09-06T19:47:09.323Z,44.44
2022-09-06T19:52:37.601Z,44.62
2022-09-06T19:57:59.815Z,44.60
2022-09-06T20:03:13.349Z,44.79
2022-09-06T20:08:24.929Z,44.77
2022-09-06T20:13:37.593Z,45.10
2022-09-06T20:19:28.353Z,45.23
2022-09-06T20:24:42.615Z,45.30
2022-09-06T20:29:49.926Z,45.46
2022-09-06T20:35:07.485Z,45.68
2022-09-06T20:40:29.407Z,45.84
2022-09-06T20:45:39.356Z,45.88
2022-09-06T20:51:08.708Z,46.04
2022-09-06T20:56:40.630Z,46.26
2022-09-06T21:01:59.771Z,46.39
2022-09-06T21:07:25.002Z,46.36
2022-09-06T21:13:01.004Z,46.64
2022-09-06T21:18:39.106Z,46.84
2022-09-06T21:24:03.938Z,46.80
2022-09-06T21:29:34.890Z,46.95
2022-09-06T21:35:16.270Z,47.21
2022-09-06T21:40:31.812Z,47.46
2022-09-06T21:45:51.506Z,47.60
2022-09-06T21:51:00.837Z,47.71
2022-09-06T21:56:21.026Z,47.98
2022-09-06T22:01:45.095Z,48.07
2022-09-06T22:07:02.262Z,48.13
2022-09-06T22:12:14.196Z,48.46
2022-09-06T22:17:28.069Z,48.59
2022-09-06T22:23:00.354Z,48.82
2022-09-06T22:28:24.265Z,48.95
2022-09-06T22:33:41.289Z,49.18
2022-09-06T22:38:58.620Z,49.24
2022-09-06T22:44:09.307Z,49.45
2022-09-06T22:49:16.855Z,49.74
2022-09-06T22:54:33.519Z,49.80
2022-09-06T22:59:43.109Z,49.91
2022-09-06T23:05:09.304Z,50.03
2022-09-06T23:10:21.947Z,50.24
2022-09-06T23:15:42.287Z,50.29
2022-09-06T23:20:49.295Z,50.41
2022-09-06T23:25:56.053Z,50.66
2022-09-06T23:31:09.275Z,50.69
2022-09-06T23:36:19.059Z,50.98
2022-09-06T23:41:26.324Z,51.05
2022-09-06T23:46:55.778Z,51.21
2022-09-06T23:52:17.073Z,51.52
2022-09-06T23:57:33.130Z,51.69
